Time;durP1;ratioP1;P1;durP2;ratioP2;P2;SDS_P1;SDS_P2;PMS_P1;PMS_P2;Temp;Humidity;BMP_temperature;BMP_pressure;BME280_temperature;BME280_humidity;BME280_pressure;Samples;Min_cycle;Max_cycle;Signal;HPM_P1;HPM_P2
2021/03/10 00:02:06;;;;;;;53.70;29.77;;;;;;;7.29;67.86;100525.38;5060281;28;20495;-78
2021/03/10 00:04:32;;;;;;;53.63;30.07;;;;;;;7.37;67.42;100524.81;5060986;28;20444;-78
2021/03/10 00:06:58;;;;;;;56.50;31.30;;;;;;;7.38;67.18;100530.97;5059757;28;20583;-78
2021/03/10 00:09:25;;;;;;;51.77;30.13;;;;;;;7.37;67.52;100535.44;5063729;28;20453;-78
2021/03/10 00:11:51;;;;;;;54.13;31.07;;;;;;;7.40;67.22;100529.91;5053255;28;20476;-79
2021/03/10 00:14:17;;;;;;;55.07;31.03;;;;;;;7.26;67.46;100535.41;5064498;28;20425;-77
2021/03/10 00:16:43;;;;;;;50.43;29.90;;;;;;;7.43;67.14;100537.66;5063621;28;20469;-78
2021/03/10 00:19:11;;;;;;;55.33;31.70;;;;;;;7.49;67.29;100537.19;5063611;28;20457;-78
2021/03/10 00:21:37;;;;;;;46.07;27.87;;;;;;;7.62;66.78;100538.94;5063269;28;20472;-77
2021/03/10 00:24:04;;;;;;;48.40;29.83;;;;;;;7.49;66.68;100541.66;5064368;28;20441;-79
2021/03/10 00:26:30;;;;;;;49.17;29.23;;;;;;;7.44;66.74;100544.66;5062386;28;20476;-78
2021/03/10 00:28:56;;;;;;;51.97;28.87;;;;;;;7.26;67.89;100538.06;5062850;28;20503;-78
2021/03/10 00:31:22;;;;;;;52.87;31.67;;;;;;;7.34;67.44;100528.56;5063375;28;21076;-78
2021/03/10 00:33:49;;;;;;;53.60;30.43;;;;;;;7.03;67.94;100524.63;5063810;28;20441;-78
2021/03/10 00:36:16;;;;;;;54.00;30.63;;;;;;;7.29;67.40;100535.16;5063066;28;20473;-78
2021/03/10 00:38:42;;;;;;;49.13;29.83;;;;;;;7.39;67.19;100549.47;5062756;28;20484;-78
2021/03/10 00:41:08;;;;;;;53.37;29.30;;;;;;;7.44;67.52;100531.34;5043770;28;20470;-77
2021/03/10 00:43:34;;;;;;;51.53;29.97;;;;;;;7.45;67.39;100532.22;5059111;28;20453;-77
2021/03/10 00:46:01;;;;;;;55.20;31.70;;;;;;;7.54;66.92;100539.53;5062680;28;20565;-77
2021/03/10 00:48:27;;;;;;;47.13;29.03;;;;;;;7.54;66.72;100542.19;5062941;28;20500;-77
2021/03/10 00:50:53;;;;;;;50.30;29.77;;;;;;;7.48;66.99;100543.50;5057225;28;20499;-77
2021/03/10 00:53:20;;;;;;;46.80;27.70;;;;;;;7.49;67.02;100547.84;5063812;28;20453;-77
2021/03/10 00:55:47;;;;;;;52.40;30.20;;;;;;;7.27;67.67;100543.22;5056173;28;20485;-78
2021/03/10 00:58:13;;;;;;;49.40;30.23;;;;;;;7.30;67.45;100542.19;5062844;28;20484;-77
2021/03/10 01:00:39;;;;;;;50.73;30.87;;;;;;;7.44;67.37;100536.69;5062379;28;20484;-79
2021/03/10 01:03:06;;;;;;;43.97;27.33;;;;;;;7.47;66.96;100535.63;5056250;28;20852;-78
2021/03/10 01:05:32;;;;;;;50.13;31.50;;;;;;;7.22;67.72;100533.91;5050059;28;20480;-77
2021/03/10 01:07:58;;;;;;;50.37;29.17;;;;;;;7.14;68.02;100530.00;5062889;28;20492;-76
2021/03/10 01:10:25;;;;;;;49.40;29.70;;;;;;;7.18;67.72;100527.97;5061639;28;20468;-78
2021/03/10 01:12:52;;;;;;;45.90;27.97;;;;;;;7.05;68.06;100530.69;5057049;28;20529;-77
2021/03/10 01:15:20;;;;;;;53.83;31.60;;;;;;;7.06;68.27;100528.84;5062462;28;20472;-77
2021/03/10 01:17:46;;;;;;;59.10;32.90;;;;;;;7.00;68.23;100532.81;5062958;28;20975;-77
2021/03/10 01:20:15;;;;;;;56.00;31.60;;;;;;;7.07;67.89;100530.56;5061397;28;20815;-77
2021/03/10 01:22:41;;;;;;;56.57;32.40;;;;;;;6.87;68.73;100519.53;5063278;28;20464;-78
2021/03/10 01:25:09;;;;;;;58.77;32.77;;;;;;;7.03;68.01;100521.97;5062242;28;20444;-78
2021/03/10 01:27:36;;;;;;;53.60;31.60;;;;;;;7.16;67.47;100525.41;5062541;28;20496;-78
2021/03/10 01:30:03;;;;;;;54.53;30.23;;;;;;;7.19;67.52;100513.72;5062729;28;20480;-78
2021/03/10 01:32:30;;;;;;;51.80;30.27;;;;;;;7.18;67.33;100522.63;5062066;28;20803;-78
2021/03/10 01:34:56;;;;;;;51.70;29.60;;;;;;;7.12;67.41;100521.28;5062437;28;20457;-78
2021/03/10 01:37:22;;;;;;;55.83;30.93;;;;;;;6.93;68.07;100531.56;5062064;28;20480;-78
2021/03/10 01:39:49;;;;;;;52.73;29.20;;;;;;;6.76;68.48;100532.75;5062026;28;20472;-78
2021/03/10 01:42:15;;;;;;;52.30;30.33;;;;;;;6.51;69.54;100536.28;5061785;28;20476;-78
2021/03/10 01:44:42;;;;;;;52.67;30.47;;;;;;;6.34;69.90;100538.31;5062973;28;20440;-78
2021/03/10 01:47:09;;;;;;;52.87;32.13;;;;;;;6.32;70.39;100545.56;5061454;28;20488;-77
2021/03/10 01:49:36;;;;;;;62.00;32.50;;;;;;;6.25;70.64;100551.38;5062426;28;20530;-78
2021/03/10 01:52:02;;;;;;;58.90;30.97;;;;;;;6.46;70.01;100547.25;5061180;28;21018;-78
2021/03/10 01:54:28;;;;;;;54.90;33.53;;;;;;;6.68;69.37;100549.22;5062278;28;20461;-78
2021/03/10 01:56:54;;;;;;;55.93;32.57;;;;;;;6.75;68.94;100547.00;5061386;28;20551;-79
2021/03/10 01:59:21;;;;;;;59.53;33.27;;;;;;;6.83;68.55;100544.66;5061411;28;20471;-78
2021/03/10 02:01:48;;;;;;;55.33;34.23;;;;;;;6.49;69.35;100554.13;5061453;28;20863;-78
2021/03/10 02:04:14;;;;;;;55.77;33.47;;;;;;;6.43;69.70;100557.25;5062145;28;20959;-78
2021/03/10 02:06:50;;;;;;;51.90;31.23;;;;;;;6.28;70.58;100556.47;5057553;28;20481;-79
2021/03/10 02:09:23;;;;;;;58.00;33.10;;;;;;;6.30;70.55;100562.53;5046347;28;20480;-78
2021/03/10 02:11:57;;;;;;;65.43;34.60;;;;;;;6.65;69.27;100553.91;5060804;28;20477;-79
2021/03/10 02:14:25;;;;;;;66.07;33.97;;;;;;;6.66;68.83;100550.31;5061938;28;20433;-79
2021/03/10 02:16:55;;;;;;;63.20;33.33;;;;;;;6.77;68.27;100537.97;5061152;28;20488;-78
2021/03/10 02:19:55;;;;;;;58.60;35.10;;;;;;;6.70;68.10;100534.06;5061958;28;20449;-78
2021/03/10 02:22:33;;;;;;;57.40;32.43;;;;;;;6.77;67.68;100537.97;5061387;28;20506;-78
2021/03/10 02:25:04;;;;;;;57.47;32.80;;;;;;;6.62;67.65;100527.59;5061621;28;20516;-78
2021/03/10 02:27:42;;;;;;;62.80;34.73;;;;;;;6.32;68.39;100542.03;5059641;28;20473;-78
2021/03/10 02:30:10;;;;;;;59.83;32.00;;;;;;;6.30;68.34;100538.63;5060331;28;20453;-78
2021/03/10 02:32:39;;;;;;;60.47;34.07;;;;;;;6.28;67.78;100533.41;5061683;28;20467;-78
2021/03/10 02:35:07;;;;;;;51.00;30.90;;;;;;;6.29;67.69;100540.44;5061217;28;20456;-77
2021/03/10 02:37:34;;;;;;;50.47;30.70;;;;;;;6.32;66.84;100524.31;5061810;28;20441;-78
2021/03/10 02:40:01;;;;;;;53.10;31.23;;;;;;;6.45;66.64;100528.75;5060473;28;20465;-79
2021/03/10 02:42:28;;;;;;;52.20;30.47;;;;;;;6.63;66.19;100534.56;5061001;28;20484;-77
2021/03/10 02:44:55;;;;;;;51.50;29.43;;;;;;;6.30;66.50;100523.56;5061938;28;20433;-77
2021/03/10 02:47:22;;;;;;;50.97;30.13;;;;;;;6.36;66.42;100525.78;5060741;28;20491;-77
2021/03/10 02:49:49;;;;;;;56.87;31.37;;;;;;;6.53;65.86;100521.94;5061030;28;20464;-78
2021/03/10 02:52:16;;;;;;;50.27;28.87;;;;;;;6.64;65.33;100528.31;5060008;28;20479;-78
2021/03/10 02:54:43;;;;;;;48.43;29.10;;;;;;;6.71;64.88;100516.28;5061000;28;20454;-77
2021/03/10 02:57:09;;;;;;;48.90;28.70;;;;;;;6.47;64.72;100513.56;5060269;28;20485;-78
2021/03/10 02:59:36;;;;;;;45.10;27.37;;;;;;;6.22;64.41;100510.81;5060563;28;20488;-77
2021/03/10 03:02:03;;;;;;;43.50;26.13;;;;;;;6.29;64.83;100507.75;5060705;28;20488;-77
2021/03/10 03:04:29;;;;;;;38.97;24.63;;;;;;;6.26;64.52;100502.63;5061072;28;20611;-77
2021/03/10 03:06:55;;;;;;;41.10;25.17;;;;;;;6.41;65.96;100509.53;5060837;28;20477;-78
2021/03/10 03:09:22;;;;;;;42.57;25.23;;;;;;;6.50;66.03;100511.53;5060670;28;20489;-77
2021/03/10 03:11:49;;;;;;;45.00;25.50;;;;;;;6.57;66.19;100519.94;5059869;28;21321;-77
2021/03/10 03:14:17;;;;;;;41.33;25.30;;;;;;;6.50;66.65;100516.00;5060297;28;20483;-77
2021/03/10 03:16:44;;;;;;;39.00;24.70;;;;;;;6.52;66.48;100514.09;5060577;28;20476;-77
2021/03/10 03:19:11;;;;;;;35.83;23.60;;;;;;;6.58;66.35;100516.31;5060873;28;20483;-78
2021/03/10 03:21:38;;;;;;;44.73;25.50;;;;;;;6.51;66.41;100513.25;5060266;28;20484;-77
2021/03/10 03:24:04;;;;;;;38.13;24.70;;;;;;;6.55;66.29;100516.53;5061305;28;20445;-77
2021/03/10 03:26:31;;;;;;;41.03;24.40;;;;;;;6.39;66.86;100512.28;5059610;28;20479;-77
2021/03/10 03:28:58;;;;;;;42.73;23.20;;;;;;;6.49;66.18;100516.94;5060743;28;20477;-78
2021/03/10 03:31:24;;;;;;;40.67;26.00;;;;;;;6.48;66.45;100524.09;5059990;28;21054;-77
2021/03/10 03:33:51;;;;;;;42.13;25.13;;;;;;;6.51;66.46;100526.53;5060728;28;20479;-77
2021/03/10 03:36:18;;;;;;;41.20;25.67;;;;;;;6.47;65.71;100519.72;5060165;28;20503;-77
2021/03/10 03:38:44;;;;;;;40.23;24.07;;;;;;;6.54;65.42;100520.97;5060448;28;20445;-77
2021/03/10 03:41:12;;;;;;;39.40;25.83;;;;;;;6.58;65.81;100522.47;5044612;28;20496;-77
2021/03/10 03:43:38;;;;;;;37.57;25.20;;;;;;;6.65;65.74;100528.22;5063127;28;20441;-77
2021/03/10 03:46:05;;;;;;;35.47;23.73;;;;;;;6.55;66.03;100527.16;5063827;28;20467;-77
2021/03/10 03:48:31;;;;;;;33.73;22.10;;;;;;;6.54;65.90;100531.59;5064238;28;20510;-77
2021/03/10 03:50:58;;;;;;;35.80;23.50;;;;;;;6.52;66.13;100522.06;5063546;28;20471;-77
2021/03/10 03:53:25;;;;;;;39.50;23.97;;;;;;;6.46;66.32;100527.78;5064796;28;20883;-77
2021/03/10 03:55:51;;;;;;;39.00;24.80;;;;;;;6.08;67.18;100518.88;5063664;28;20499;-77
2021/03/10 03:58:17;;;;;;;39.17;23.63;;;;;;;6.01;67.69;100517.59;5063552;28;20480;-78
2021/03/10 04:00:43;;;;;;;37.60;24.97;;;;;;;5.82;68.52;100518.81;5063669;28;20475;-77
2021/03/10 04:03:10;;;;;;;40.40;26.00;;;;;;;5.66;68.63;100512.84;5065184;28;20429;-77
2021/03/10 04:05:36;;;;;;;44.90;27.20;;;;;;;5.63;67.55;100523.66;5063671;28;20476;-77
2021/03/10 04:08:02;;;;;;;40.40;23.83;;;;;;;5.82;68.54;100517.97;5064503;28;20493;-77
2021/03/10 04:10:31;;;;;;;47.20;27.37;;;;;;;5.61;68.51;100520.25;5062090;28;20480;-76
2021/03/10 04:12:58;;;;;;;46.60;26.40;;;;;;;5.92;67.31;100518.19;5063451;28;20511;-77
2021/03/10 04:15:25;;;;;;;44.03;27.10;;;;;;;6.04;67.15;100520.03;5064142;28;20452;-77
2021/03/10 04:17:52;;;;;;;43.07;25.83;;;;;;;6.00;67.66;100510.59;5063851;28;20481;-77
2021/03/10 04:20:19;;;;;;;43.00;25.60;;;;;;;6.20;67.48;100519.84;5063510;28;20461;-76
2021/03/10 04:22:47;;;;;;;45.03;25.30;;;;;;;6.20;67.23;100526.00;5063367;28;20564;-77
2021/03/10 04:25:14;;;;;;;40.83;26.00;;;;;;;5.96;68.34;100528.53;5063477;28;20448;-77
2021/03/10 04:27:41;;;;;;;40.27;25.40;;;;;;;5.84;68.32;100524.00;5063133;28;20481;-77
2021/03/10 04:30:10;;;;;;;40.07;25.40;;;;;;;5.97;68.16;100524.94;5063416;28;20441;-78
2021/03/10 04:32:36;;;;;;;48.37;28.50;;;;;;;5.93;67.27;100519.88;5063536;28;20429;-77
2021/03/10 04:35:03;;;;;;;40.03;24.50;;;;;;;5.63;68.02;100524.50;5064270;28;20440;-77
2021/03/10 04:37:29;;;;;;;42.07;27.67;;;;;;;5.48;68.79;100520.22;5062982;28;20457;-77
2021/03/10 04:39:55;;;;;;;42.40;27.30;;;;;;;5.12;70.06;100520.81;5063642;28;20459;-77
2021/03/10 04:42:21;;;;;;;53.87;30.57;;;;;;;5.58;68.68;100531.06;5062882;28;20481;-76
2021/03/10 04:44:48;;;;;;;44.20;25.80;;;;;;;5.89;68.17;100534.34;5063833;28;20475;-77
2021/03/10 04:47:15;;;;;;;49.33;28.33;;;;;;;5.89;68.34;100540.47;5063092;28;20483;-78
2021/03/10 04:49:41;;;;;;;44.10;26.17;;;;;;;6.22;67.54;100540.00;5062625;28;20948;-77
2021/03/10 04:52:07;;;;;;;50.13;29.13;;;;;;;6.36;67.00;100538.22;5063106;28;20518;-77
2021/03/10 04:54:34;;;;;;;50.97;30.30;;;;;;;6.18;67.41;100530.56;5062518;28;20445;-76
2021/03/10 04:57:00;;;;;;;56.07;31.10;;;;;;;5.93;68.58;100527.84;5062268;28;20488;-77
2021/03/10 04:59:26;;;;;;;48.60;29.13;;;;;;;6.28;67.71;100527.28;5062414;28;20456;-77
2021/03/10 05:01:53;;;;;;;54.23;32.33;;;;;;;6.14;67.94;100531.72;5062424;28;20480;-77
2021/03/10 05:04:19;;;;;;;53.83;31.23;;;;;;;6.03;68.76;100537.75;5063321;28;20905;-77
2021/03/10 05:06:46;;;;;;;48.17;29.87;;;;;;;6.05;68.97;100545.63;5062440;28;20473;-77
2021/03/10 05:09:12;;;;;;;55.97;32.23;;;;;;;6.13;68.97;100545.13;5062287;28;20995;-78
2021/03/10 05:11:38;;;;;;;56.73;32.23;;;;;;;6.07;69.41;100545.53;5051575;28;20992;-78
2021/03/10 05:14:04;;;;;;;59.47;34.30;;;;;;;5.65;70.55;100554.41;5060338;28;20445;-78
2021/03/10 05:16:31;;;;;;;63.90;36.03;;;;;;;5.69;70.81;100552.41;5061549;28;20484;-78
2021/03/10 05:18:58;;;;;;;64.83;34.17;;;;;;;6.06;69.62;100554.44;5062312;28;20449;-76
2021/03/10 05:21:24;;;;;;;61.20;36.83;;;;;;;5.73;70.83;100556.56;5060694;28;20472;-78
2021/03/10 05:23:50;;;;;;;66.37;35.00;;;;;;;5.96;70.50;100551.56;5062164;28;20456;-77
2021/03/10 05:26:17;;;;;;;73.93;37.77;;;;;;;6.30;69.13;100549.25;5061280;28;20496;-77
2021/03/10 05:28:43;;;;;;;61.30;35.03;;;;;;;5.96;69.86;100556.88;5060224;28;20488;-77
2021/03/10 05:31:09;;;;;;;64.90;36.07;;;;;;;6.28;69.29;100553.81;5061093;28;20584;-77
2021/03/10 05:33:36;;;;;;;68.17;36.17;;;;;;;6.45;68.66;100552.66;5061690;28;20449;-78
2021/03/10 05:36:04;;;;;;;73.80;36.43;;;;;;;6.06;69.62;100557.09;5054777;28;20554;-78
2021/03/10 05:38:31;;;;;;;65.33;35.67;;;;;;;5.93;69.92;100549.09;5061997;28;20994;-78
2021/03/10 05:40:58;;;;;;;66.23;36.00;;;;;;;6.26;68.90;100553.94;5060220;28;20532;-78
2021/03/10 05:43:24;;;;;;;61.50;34.60;;;;;;;6.40;68.65;100547.66;5060989;28;20522;-77
2021/03/10 05:45:50;;;;;;;61.93;35.67;;;;;;;6.22;68.93;100547.13;5059590;28;20526;-77
2021/03/10 05:48:16;;;;;;;63.70;35.87;;;;;;;6.26;68.88;100551.28;5061634;28;20489;-77
2021/03/10 05:50:43;;;;;;;61.87;34.27;;;;;;;6.37;68.54;100546.09;5059431;28;21023;-77
2021/03/10 05:53:11;;;;;;;71.83;39.57;;;;;;;6.29;68.56;100548.41;5061075;28;20457;-78
2021/03/10 05:55:38;;;;;;;70.00;38.40;;;;;;;6.01;69.34;100546.81;5060348;28;20484;-79
2021/03/10 05:58:09;;;;;;;63.93;36.40;;;;;;;6.03;69.47;100540.41;5059456;28;20480;-79
2021/03/10 06:00:35;;;;;;;65.97;33.80;;;;;;;6.26;68.67;100537.16;5060330;28;20465;-77
2021/03/10 06:03:04;;;;;;;68.70;35.00;;;;;;;6.26;68.33;100551.28;5059921;28;20453;-77
2021/03/10 06:05:30;;;;;;;64.63;36.33;;;;;;;6.35;67.98;100545.34;5058818;28;20534;-78
2021/03/10 06:08:00;;;;;;;70.33;35.20;;;;;;;6.14;69.03;100533.53;5057879;28;20512;-77
2021/03/10 06:10:37;;;;;;;64.57;35.50;;;;;;;6.21;68.72;100534.81;5058865;28;20491;-77
2021/03/10 06:13:04;;;;;;;65.10;36.97;;;;;;;6.23;68.92;100540.84;5058252;28;20782;-78
2021/03/10 06:15:41;;;;;;;65.73;37.53;;;;;;;6.48;68.15;100531.22;5060202;28;20473;-78
2021/03/10 06:18:07;;;;;;;63.80;34.87;;;;;;;6.58;67.55;100537.56;5060630;28;20448;-78
2021/03/10 06:20:34;;;;;;;65.83;36.37;;;;;;;6.70;66.88;100541.16;5059058;28;20480;-80
2021/03/10 06:23:00;;;;;;;59.57;36.23;;;;;;;6.46;67.70;100533.09;5061026;28;20445;-78
2021/03/10 06:25:37;;;;;;;57.57;34.30;;;;;;;6.57;67.92;100541.19;5060027;28;21010;-78
2021/03/10 06:28:04;;;;;;;67.37;37.10;;;;;;;6.71;67.26;100549.03;5059314;28;20481;-79
2021/03/10 06:30:32;;;;;;;63.93;34.40;;;;;;;6.82;66.79;100547.41;5060028;28;20481;-78
2021/03/10 06:32:58;;;;;;;58.20;34.53;;;;;;;7.01;66.29;100550.44;5060790;28;20449;-78
2021/03/10 06:35:27;;;;;;;65.07;34.70;;;;;;;6.85;66.61;100547.19;5059438;28;20495;-78
2021/03/10 06:38:06;;;;;;;61.87;35.83;;;;;;;6.49;67.26;100531.09;5061038;28;20498;-78
2021/03/10 06:40:32;;;;;;;63.00;36.20;;;;;;;6.49;67.44;100535.53;5059637;28;20550;-78
2021/03/10 06:43:00;;;;;;;62.57;35.87;;;;;;;6.75;67.05;100533.72;5059781;28;20453;-78
2021/03/10 06:45:31;;;;;;;62.90;35.63;;;;;;;6.89;66.79;100541.56;5059565;28;20464;-77
2021/03/10 06:47:58;;;;;;;67.00;36.77;;;;;;;7.08;66.33;100542.88;5060516;28;20496;-79
2021/03/10 06:50:34;;;;;;;58.77;33.53;;;;;;;7.29;65.58;100545.78;5058508;28;20455;-77
2021/03/10 06:53:01;;;;;;;60.70;35.60;;;;;;;7.54;64.80;100547.50;5060646;28;20471;-78
2021/03/10 06:55:37;;;;;;;65.03;35.83;;;;;;;7.62;64.73;100544.25;5060004;28;20885;-78
2021/03/10 06:58:05;;;;;;;53.00;33.87;;;;;;;7.74;64.21;100551.31;5059111;28;20481;-78
2021/03/10 07:00:31;;;;;;;58.93;34.13;;;;;;;7.64;63.94;100559.16;5059367;28;20477;-78
2021/03/10 07:02:58;;;;;;;57.00;34.80;;;;;;;7.52;64.10;100555.59;5060845;28;20433;-78
2021/03/10 07:05:25;;;;;;;57.90;33.20;;;;;;;7.75;64.35;100560.19;5059221;28;20529;-79
2021/03/10 07:07:52;;;;;;;54.83;35.00;;;;;;;7.60;64.14;100562.16;5060633;28;20491;-78
2021/03/10 07:10:19;;;;;;;53.17;34.00;;;;;;;7.61;64.07;100563.88;5059552;28;20453;-78
2021/03/10 07:12:45;;;;;;;55.50;34.23;;;;;;;7.49;64.84;100562.97;5059175;28;20928;-78
2021/03/10 07:15:14;;;;;;;61.20;34.37;;;;;;;7.07;66.41;100555.34;5060361;28;20429;-78
2021/03/10 07:17:40;;;;;;;57.13;33.83;;;;;;;6.60;67.28;100552.44;5062992;28;20497;-78
2021/03/10 07:20:08;;;;;;;51.53;33.57;;;;;;;7.21;66.80;100566.78;5062496;28;20453;-78
2021/03/10 07:22:37;;;;;;;55.30;33.63;;;;;;;7.18;65.99;100580.31;5064427;28;20492;-78
2021/03/10 07:25:06;;;;;;;59.57;36.90;;;;;;;6.48;67.71;100574.53;5064122;28;20444;-78
2021/03/10 07:27:37;;;;;;;59.77;34.00;;;;;;;6.83;67.45;100576.53;5062527;28;21039;-77
2021/03/10 07:30:04;;;;;;;56.93;33.70;;;;;;;7.01;66.85;100579.69;5068260;28;20457;-79
2021/03/10 07:32:32;;;;;;;57.13;35.33;;;;;;;6.66;67.28;100576.88;5063083;28;21310;-80
2021/03/10 07:35:03;;;;;;;53.27;32.83;;;;;;;6.86;67.45;100581.66;5063357;28;20762;-80
2021/03/10 07:37:29;;;;;;;57.47;34.50;;;;;;;6.83;67.57;100578.34;5062898;28;20465;-79
2021/03/10 07:40:06;;;;;;;57.73;33.90;;;;;;;6.75;67.89;100576.22;5063214;28;20464;-79
2021/03/10 07:42:33;;;;;;;58.73;34.27;;;;;;;6.71;67.44;100578.25;5063191;28;20425;-78
2021/03/10 07:44:59;;;;;;;63.80;34.53;;;;;;;6.80;67.45;100571.44;5064068;28;20429;-78
2021/03/10 07:47:25;;;;;;;58.93;34.63;;;;;;;6.74;67.76;100571.88;5063357;28;20511;-79
2021/03/10 07:50:00;;;;;;;61.20;35.13;;;;;;;6.86;66.63;100572.81;5062325;28;20492;-79
2021/03/10 07:52:28;;;;;;;63.03;34.00;;;;;;;6.74;68.41;100575.38;5063128;28;20472;-79
2021/03/10 07:54:58;;;;;;;66.23;39.57;;;;;;;6.85;66.55;100571.97;5063140;28;20441;-79
2021/03/10 07:57:25;;;;;;;55.20;34.27;;;;;;;7.47;65.51;100581.69;5061349;28;20487;-81
2021/03/10 07:59:56;;;;;;;58.90;32.63;;;;;;;7.45;65.12;100588.09;5060659;28;20455;-79
2021/03/10 08:02:24;;;;;;;60.33;34.53;;;;;;;6.91;66.89;100583.97;5043034;28;20494;-80
2021/03/10 08:04:54;;;;;;;59.03;35.03;;;;;;;6.71;67.60;100580.06;5042985;28;20463;-78
2021/03/10 08:07:25;;;;;;;55.83;33.63;;;;;;;6.75;67.98;100585.06;5043095;28;20477;-79
2021/03/10 08:09:52;;;;;;;52.03;33.20;;;;;;;6.75;68.47;100586.84;5051961;28;20986;-81
2021/03/10 08:12:20;;;;;;;55.27;34.10;;;;;;;6.47;69.02;100574.66;5061921;28;20480;-80
2021/03/10 08:14:47;;;;;;;55.60;36.03;;;;;;;6.75;68.18;100577.09;5063152;28;20483;-81
2021/03/10 08:17:24;;;;;;;58.00;34.57;;;;;;;7.22;66.70;100579.97;5062636;28;20480;-79
2021/03/10 08:19:52;;;;;;;60.00;35.37;;;;;;;7.00;67.67;100578.00;5063038;28;20451;-78
2021/03/10 08:22:20;;;;;;;59.23;37.07;;;;;;;7.72;65.46;100579.88;5062717;28;20473;-79
2021/03/10 08:24:48;;;;;;;56.73;31.60;;;;;;;7.19;67.23;100579.31;5062756;28;20452;-79
2021/03/10 08:27:14;;;;;;;55.63;32.63;;;;;;;7.77;65.34;100583.03;5062204;28;20480;-79
2021/03/10 08:29:47;;;;;;;56.13;34.20;;;;;;;7.98;64.15;100585.06;5061371;28;20499;-79
2021/03/10 08:32:23;;;;;;;52.77;32.40;;;;;;;7.76;65.04;100580.50;5062139;28;20464;-81
2021/03/10 08:34:50;;;;;;;54.00;32.17;;;;;;;7.39;65.30;100583.22;5063148;28;20456;-81
2021/03/10 08:37:16;;;;;;;52.60;31.20;;;;;;;7.77;64.02;100593.69;5061932;28;20489;-80
2021/03/10 08:39:43;;;;;;;50.73;32.90;;;;;;;7.24;65.50;100588.69;5061935;28;20467;-80
2021/03/10 08:42:11;;;;;;;47.37;29.93;;;;;;;6.88;67.53;100592.16;5062277;28;20479;-81
2021/03/10 08:44:41;;;;;;;50.00;30.83;;;;;;;6.83;67.69;100583.66;5063121;28;20429;-81
2021/03/10 08:47:11;;;;;;;49.30;28.17;;;;;;;7.65;65.44;100587.47;5061804;28;20467;-80
2021/03/10 08:49:38;;;;;;;50.40;30.33;;;;;;;7.00;67.63;100587.78;5061206;28;20489;-79
2021/03/10 08:52:09;;;;;;;53.03;30.13;;;;;;;7.05;67.90;100586.50;5044571;28;20837;-79
2021/03/10 08:54:51;;;;;;;49.67;30.00;;;;;;;7.18;66.96;100589.13;5052952;28;20514;-80
2021/03/10 08:57:19;;;;;;;61.40;35.83;;;;;;;6.81;67.98;100575.81;5057634;28;20495;-80
2021/03/10 08:59:46;;;;;;;57.93;31.20;;;;;;;7.57;65.54;100579.22;5061997;28;20987;-79
2021/03/10 09:02:13;;;;;;;65.20;33.77;;;;;;;7.84;64.51;100578.09;5061502;28;20469;-79
2021/03/10 09:04:45;;;;;;;60.83;33.93;;;;;;;7.83;64.48;100579.94;5062762;28;20453;-80
2021/03/10 09:07:12;;;;;;;66.50;31.43;;;;;;;7.97;65.99;100586.00;5061567;28;20502;-80
2021/03/10 09:09:39;;;;;;;64.00;35.10;;;;;;;7.43;66.07;100580.22;5060509;28;20485;-80
2021/03/10 09:12:07;;;;;;;67.83;35.47;;;;;;;7.29;66.44;100583.00;5061691;28;20530;-82
2021/03/10 09:14:36;;;;;;;74.53;40.10;;;;;;;7.57;65.29;100581.88;5061943;28;20434;-80
2021/03/10 09:17:03;;;;;;;84.43;39.77;;;;;;;7.42;65.21;100570.53;5061084;28;20500;-80
2021/03/10 09:19:31;;;;;;;86.57;41.27;;;;;;;7.64;64.81;100572.47;5062292;28;20448;-81
2021/03/10 09:22:19;;;;;;;89.60;42.30;;;;;;;7.79;64.87;100572.28;5061661;28;21077;-79
2021/03/10 09:24:56;;;;;;;78.60;40.10;;;;;;;7.63;64.75;100561.94;5056054;28;20972;-80
2021/03/10 09:27:25;;;;;;;83.50;42.20;;;;;;;7.95;64.78;100564.00;5061424;28;20476;-78
2021/03/10 09:29:55;;;;;;;83.60;39.93;;;;;;;8.20;63.24;100555.84;5061437;28;20500;-79
2021/03/10 09:32:22;;;;;;;88.07;41.93;;;;;;;8.04;63.67;100547.34;5059863;28;20510;-79
2021/03/10 09:34:52;;;;;;;96.30;44.67;;;;;;;7.88;63.19;100551.16;5061331;28;20452;-78
2021/03/10 09:37:23;;;;;;;94.47;44.83;;;;;;;7.77;64.19;100552.91;5061456;28;20484;-79
2021/03/10 09:39:50;;;;;;;93.33;44.50;;;;;;;8.63;62.74;100541.03;5060273;28;20452;-79
2021/03/10 09:42:17;;;;;;;78.53;42.30;;;;;;;8.00;63.52;100549.38;5060891;28;20485;-79
2021/03/10 09:44:48;;;;;;;97.87;43.93;;;;;;;8.05;63.87;100543.69;5056640;28;20807;-80
2021/03/10 09:47:21;;;;;;;82.03;42.03;;;;;;;8.45;62.59;100544.19;5060246;28;20463;-79
2021/03/10 09:49:52;;;;;;;88.37;44.10;;;;;;;8.18;63.55;100541.78;5061341;28;20489;-79
2021/03/10 09:52:30;;;;;;;84.83;43.20;;;;;;;7.62;65.58;100539.81;5061042;28;20483;-80
2021/03/10 09:54:57;;;;;;;72.30;40.10;;;;;;;7.98;63.94;100527.31;5060066;28;20459;-80
2021/03/10 09:57:24;;;;;;;71.63;39.30;;;;;;;8.05;64.08;100522.38;5060326;28;20481;-79
2021/03/10 09:59:51;;;;;;;74.03;40.23;;;;;;;8.41;63.67;100521.34;5061310;28;20536;-79
2021/03/10 10:02:19;;;;;;;69.37;38.50;;;;;;;8.95;61.56;100513.63;5060109;28;20543;-80
2021/03/10 10:04:56;;;;;;;68.90;38.47;;;;;;;8.43;62.16;100507.94;5061815;28;20433;-80
2021/03/10 10:07:25;;;;;;;62.00;36.40;;;;;;;9.27;60.20;100505.66;5060496;28;20477;-80
2021/03/10 10:09:51;;;;;;;61.47;35.83;;;;;;;9.49;59.46;100507.41;5059393;28;20496;-79
2021/03/10 10:12:18;;;;;;;64.40;35.33;;;;;;;10.08;58.22;100497.16;5060819;28;20511;-79
2021/03/10 10:14:44;;;;;;;58.77;37.03;;;;;;;9.45;58.38;100489.13;5061076;28;20449;-81
2021/03/10 10:17:12;;;;;;;57.93;33.87;;;;;;;9.45;58.52;100497.97;5060061;28;20479;-81
2021/03/10 10:19:39;;;;;;;54.47;31.03;;;;;;;9.81;58.02;100501.19;5061519;28;20526;-80
2021/03/10 10:22:06;;;;;;;51.77;31.23;;;;;;;9.51;58.76;100497.47;5059624;28;20483;-80
2021/03/10 10:24:32;;;;;;;46.80;29.00;;;;;;;9.31;58.20;100498.25;5060062;28;20456;-80
2021/03/10 10:26:58;;;;;;;46.20;28.20;;;;;;;9.94;56.97;100492.97;5060082;28;20477;-81
2021/03/10 10:29:25;;;;;;;48.47;29.47;;;;;;;10.10;56.78;100493.38;5060366;28;20488;-78
2021/03/10 10:31:52;;;;;;;46.60;24.73;;;;;;;9.40;57.90;100493.00;5059120;28;20523;-80
2021/03/10 10:34:18;;;;;;;49.73;24.67;;;;;;;10.00;55.42;100489.81;5061189;28;20437;-81
2021/03/10 10:36:46;;;;;;;39.43;24.23;;;;;;;10.66;54.51;100491.25;5059990;28;20483;-79
2021/03/10 10:39:12;;;;;;;37.20;23.80;;;;;;;10.96;54.38;100492.22;5059434;28;20461;-80
2021/03/10 10:41:38;;;;;;;37.67;23.67;;;;;;;10.93;52.89;100491.47;5060579;28;20476;-81
2021/03/10 10:44:05;;;;;;;31.87;21.70;;;;;;;10.69;53.04;100491.88;5061173;28;20433;-81
2021/03/10 10:46:32;;;;;;;38.47;23.13;;;;;;;11.05;52.75;100491.38;5061129;28;20651;-80
2021/03/10 10:48:58;;;;;;;35.93;23.20;;;;;;;12.21;50.12;100490.53;5064722;28;20495;-81
2021/03/10 10:51:28;;;;;;;34.50;21.10;;;;;;;10.15;53.34;100491.13;5063565;28;20477;-81
2021/03/10 10:53:55;;;;;;;34.53;20.80;;;;;;;9.77;54.48;100486.41;5062025;28;20441;-80
2021/03/10 10:56:22;;;;;;;30.10;20.27;;;;;;;9.74;56.01;100489.34;5063117;28;20563;-79
2021/03/10 10:58:49;;;;;;;32.80;20.20;;;;;;;9.65;55.36;100482.94;5063507;28;20532;-80
2021/03/10 11:01:15;;;;;;;32.60;21.20;;;;;;;9.14;57.83;100478.28;5062376;28;20556;-81
2021/03/10 11:03:42;;;;;;;33.67;20.77;;;;;;;9.88;56.07;100475.66;5061943;28;20854;-80
2021/03/10 11:06:08;;;;;;;34.53;21.87;;;;;;;10.10;56.06;100479.16;5060361;28;20500;-78
2021/03/10 11:08:35;;;;;;;32.07;19.93;;;;;;;10.39;54.33;100468.66;5059704;28;20485;-79
2021/03/10 11:11:02;;;;;;;31.40;20.60;;;;;;;10.80;53.09;100472.19;5058888;28;20473;-79
2021/03/10 11:13:29;;;;;;;30.60;20.00;;;;;;;10.84;53.79;100467.41;5059848;28;20456;-80
2021/03/10 11:15:56;;;;;;;33.07;19.70;;;;;;;11.59;52.31;100465.91;5060251;28;20499;-81
2021/03/10 11:18:22;;;;;;;30.00;19.67;;;;;;;10.49;53.98;100455.34;5061393;28;20559;-79
2021/03/10 11:20:49;;;;;;;28.60;19.83;;;;;;;10.74;52.57;100449.53;5052263;28;20545;-81